createdAt,value
2023-04-26T00:00:09.342Z,98859.88
2023-04-26T00:02:37.639Z,98858.94
2023-04-26T00:05:07.925Z,98851.88
2023-04-26T00:07:38.079Z,98864.44
2023-04-26T00:10:06.511Z,98859.91
2023-04-26T00:12:34.625Z,98863.13
2023-04-26T00:15:03.984Z,98871.13
2023-04-26T00:17:32.102Z,98860.06
2023-04-26T00:19:59.968Z,98856.69
2023-04-26T00:22:28.080Z,98860.91
2023-04-26T00:24:56.167Z,98851.41
2023-04-26T00:27:24.065Z,98858.75
2023-04-26T00:29:51.965Z,98855.75
2023-04-26T00:32:21.252Z,98846.31
2023-04-26T00:34:49.148Z,98835.34
2023-04-26T00:37:17.067Z,98847.91
2023-04-26T00:39:44.929Z,98843.53
2023-04-26T00:42:12.843Z,98848.09
2023-04-26T00:44:41.307Z,98840.00
2023-04-26T00:47:09.611Z,98852.72
2023-04-26T00:49:38.901Z,98843.16
2023-04-26T00:52:07.679Z,98847.06
2023-04-26T00:54:35.771Z,98845.81
2023-04-26T00:57:04.179Z,98845.81
2023-04-26T00:59:32.449Z,98847.75
2023-04-26T01:02:00.728Z,98846.59
2023-04-26T01:04:30.469Z,98848.97
2023-04-26T01:07:00.780Z,98846.91
2023-04-26T01:09:29.739Z,98818.19
2023-04-26T01:11:58.707Z,98838.50
2023-04-26T01:14:27.154Z,98837.38
2023-04-26T01:16:55.596Z,98847.13
2023-04-26T01:19:23.568Z,98847.22
2023-04-26T01:21:51.488Z,98844.06
2023-04-26T01:24:20.751Z,98848.25
2023-04-26T01:26:48.969Z,98840.59
2023-04-26T01:29:17.597Z,98840.00
2023-04-26T01:31:46.324Z,98838.47
2023-04-26T01:34:14.432Z,98827.16
2023-04-26T01:36:42.830Z,98825.47
2023-04-26T01:39:10.842Z,98820.53
2023-04-26T01:41:40.816Z,98815.97
2023-04-26T01:44:09.055Z,98816.63
2023-04-26T01:46:37.006Z,98824.34
2023-04-26T01:49:04.944Z,98825.47
2023-04-26T01:51:32.905Z,98819.19
2023-04-26T01:54:00.925Z,98819.44
2023-04-26T01:56:28.894Z,98818.81
2023-04-26T01:58:59.265Z,98815.78
2023-04-26T02:01:27.488Z,98819.19
2023-04-26T02:03:55.447Z,98824.28
2023-04-26T02:06:23.517Z,98827.88
2023-04-26T02:08:51.669Z,98817.41
2023-04-26T02:11:19.940Z,98823.19
2023-04-26T02:13:47.909Z,98823.69
2023-04-26T02:16:17.262Z,98824.81
2023-04-26T02:18:45.575Z,98820.38
2023-04-26T02:21:13.499Z,98813.50
2023-04-26T02:23:41.533Z,98820.88
2023-04-26T02:26:09.483Z,98816.56
2023-04-26T02:28:37.467Z,98820.38
2023-04-26T02:31:05.914Z,98831.16
2023-04-26T02:33:35.602Z,98822.78
2023-04-26T02:36:05.598Z,98833.13
2023-04-26T02:38:36.408Z,98837.31
2023-04-26T02:41:05.995Z,98831.28
2023-04-26T02:43:33.908Z,98828.72
2023-04-26T02:46:01.828Z,98822.78
2023-04-26T02:48:29.774Z,98832.81
2023-04-26T02:50:59.052Z,98839.59
2023-04-26T02:53:26.954Z,98834.25
2023-04-26T02:55:54.818Z,98835.25
2023-04-26T02:58:22.734Z,98842.31
2023-04-26T03:00:50.800Z,98842.72
2023-04-26T03:03:19.073Z,98826.25
2023-04-26T03:05:47.325Z,98829.47
2023-04-26T03:08:16.717Z,98827.50
2023-04-26T03:10:45.924Z,98824.34
2023-04-26T03:13:13.838Z,98829.03
2023-04-26T03:15:45.779Z,98823.41
2023-04-26T03:18:13.726Z,98823.59
2023-04-26T03:20:42.077Z,98816.03
2023-04-26T03:23:10.050Z,98813.56
2023-04-26T03:25:39.679Z,98814.25
2023-04-26T03:28:07.725Z,98810.84
2023-04-26T03:30:35.610Z,98810.50
2023-04-26T03:33:03.863Z,98801.81
2023-04-26T03:35:31.817Z,98805.06
2023-04-26T03:37:59.756Z,98800.47
2023-04-26T03:40:27.688Z,98797.31
2023-04-26T03:42:57.042Z,98797.06
2023-04-26T03:45:26.770Z,98806.16
2023-04-26T03:47:55.033Z,98805.06
2023-04-26T03:50:23.027Z,98808.47
2023-04-26T03:52:50.968Z,98801.72
2023-04-26T03:55:18.971Z,98807.22
2023-04-26T03:57:46.884Z,98799.44
2023-04-26T04:00:17.020Z,98804.16
2023-04-26T04:02:46.310Z,98790.13
2023-04-26T04:05:14.585Z,98793.28
2023-04-26T04:07:43.016Z,98794.19
2023-04-26T04:10:11.765Z,98769.44
2023-04-26T04:12:39.706Z,98783.22
2023-04-26T04:15:08.628Z,98795.56
2023-04-26T04:17:38.804Z,98799.38
2023-04-26T04:20:08.975Z,98794.69
2023-04-26T04:22:36.966Z,98799.78
2023-04-26T04:25:06.041Z,98799.97
2023-04-26T04:27:34.090Z,98794.38
2023-04-26T04:30:04.288Z,98810.25
2023-04-26T04:32:33.277Z,98814.66
2023-04-26T04:35:03.140Z,98819.06
2023-04-26T04:37:33.166Z,98809.72
2023-04-26T04:40:01.412Z,98817.75
2023-04-26T04:42:29.394Z,98813.66
2023-04-26T04:44:59.938Z,98826.19
2023-04-26T04:47:27.908Z,98819.50
2023-04-26T04:49:55.867Z,98827.97
2023-04-26T04:52:25.232Z,98820.63
2023-04-26T04:54:53.252Z,98830.44
2023-04-26T04:57:21.205Z,98835.84
2023-04-26T04:59:49.129Z,98843.91
2023-04-26T05:02:17.272Z,98823.78
2023-04-26T05:04:45.374Z,98833.38
2023-04-26T05:07:15.678Z,98846.34
2023-04-26T05:09:45.757Z,98853.59
2023-04-26T05:12:13.758Z,98855.16
2023-04-26T05:14:41.999Z,98855.59
2023-04-26T05:17:09.925Z,98851.22
2023-04-26T05:19:37.868Z,98863.13
2023-04-26T05:22:05.889Z,98873.84
2023-04-26T05:24:34.539Z,98870.94
2023-04-26T05:27:04.276Z,98859.50
2023-04-26T05:29:32.409Z,98871.41
2023-04-26T05:32:00.378Z,98858.66
2023-04-26T05:34:28.316Z,98873.44
2023-04-26T05:36:56.428Z,98875.22
2023-04-26T05:39:24.416Z,98870.31
2023-04-26T05:41:52.482Z,98871.91
2023-04-26T05:44:24.435Z,98863.50
2023-04-26T05:46:52.319Z,98873.34
2023-04-26T05:49:20.505Z,98880.16
2023-04-26T05:51:48.452Z,98879.38
2023-04-26T05:54:16.447Z,98884.31
2023-04-26T05:56:44.324Z,98890.41
2023-04-26T05:59:13.813Z,98893.63
2023-04-26T06:01:43.138Z,98892.97
2023-04-26T06:04:12.034Z,98891.19
2023-04-26T06:06:40.736Z,98884.19
2023-04-26T06:09:08.773Z,98892.63
2023-04-26T06:11:36.760Z,98881.56
2023-04-26T06:14:04.754Z,98898.38
2023-04-26T06:16:32.671Z,98902.88
2023-04-26T06:19:02.027Z,98898.41
2023-04-26T06:21:30.301Z,98880.19
2023-04-26T06:23:58.254Z,98899.31
2023-04-26T06:26:26.164Z,98895.19
2023-04-26T06:28:54.003Z,98905.69
2023-04-26T06:31:23.015Z,98895.19
2023-04-26T06:33:51.206Z,98899.25
2023-04-26T06:36:20.745Z,98888.75
2023-04-26T06:38:48.826Z,98886.63
2023-04-26T06:41:16.733Z,98881.34
2023-04-26T06:43:44.591Z,98881.69
2023-04-26T06:46:12.802Z,98880.78
2023-04-26T06:48:40.908Z,98887.25
2023-04-26T06:51:09.662Z,98881.63
2023-04-26T06:53:38.938Z,98885.22
2023-04-26T06:56:07.273Z,98886.69
2023-04-26T06:58:36.588Z,98881.44
2023-04-26T07:01:06.373Z,98879.28
2023-04-26T07:03:34.468Z,98879.63
2023-04-26T07:06:02.550Z,98879.09
2023-04-26T07:08:31.393Z,98873.84
2023-04-26T07:11:00.676Z,98878.59
2023-04-26T07:13:28.564Z,98875.22
2023-04-26T07:15:56.559Z,98870.50
2023-04-26T07:18:24.464Z,98872.25
2023-04-26T07:20:52.358Z,98880.69
2023-04-26T07:23:20.263Z,98877.03
2023-04-26T07:25:48.198Z,98876.50
2023-04-26T07:28:17.647Z,98880.50
2023-04-26T07:30:45.613Z,98884.00
2023-04-26T07:33:13.561Z,98880.13
2023-04-26T07:35:41.507Z,98875.50
2023-04-26T07:38:09.863Z,98868.41
2023-04-26T07:40:38.760Z,98865.22
2023-04-26T07:43:06.665Z,98878.06
2023-04-26T07:45:35.960Z,98866.88
2023-04-26T07:48:03.929Z,98872.19
2023-04-26T07:50:31.939Z,98873.41
2023-04-26T07:52:59.854Z,98866.75
2023-04-26T07:55:27.823Z,98862.53
2023-04-26T07:57:55.857Z,98853.91
2023-04-26T08:00:24.061Z,98863.47
2023-04-26T08:02:53.659Z,98858.88
2023-04-26T08:05:22.182Z,98868.66
2023-04-26T08:07:50.234Z,98865.06
2023-04-26T08:10:18.261Z,98860.47
2023-04-26T08:12:46.400Z,98864.19
2023-04-26T08:15:14.412Z,98860.28
2023-04-26T08:17:42.628Z,98865.81
2023-04-26T08:20:13.093Z,98867.97
2023-04-26T08:22:41.038Z,98868.16
2023-04-26T08:25:09.760Z,98868.44
2023-04-26T08:27:37.742Z,98869.06
2023-04-26T08:30:06.478Z,98866.13
2023-04-26T08:32:35.557Z,98866.88
2023-04-26T08:35:03.480Z,98870.44
2023-04-26T08:37:32.734Z,98869.06
2023-04-26T08:40:00.610Z,98867.94
2023-04-26T08:42:29.650Z,98864.34
2023-04-26T08:45:02.639Z,98863.69
2023-04-26T08:47:36.515Z,98870.97
2023-04-26T08:50:05.090Z,98869.41
2023-04-26T08:52:34.552Z,98867.44
2023-04-26T08:55:05.026Z,98868.16
2023-04-26T08:57:33.919Z,98864.22
2023-04-26T09:00:05.733Z,98848.69
2023-04-26T09:02:34.289Z,98875.41
2023-04-26T09:05:02.607Z,98860.56
2023-04-26T09:07:33.214Z,98867.50
2023-04-26T09:10:05.972Z,98872.56
2023-04-26T09:12:33.954Z,98868.09
2023-04-26T09:15:02.278Z,98862.66
2023-04-26T09:17:32.039Z,98858.44
2023-04-26T09:20:01.277Z,98865.44
2023-04-26T09:22:30.636Z,98873.06
2023-04-26T09:24:58.896Z,98862.22
2023-04-26T09:27:36.243Z,98868.09
2023-04-26T09:30:10.522Z,98868.38
2023-04-26T09:32:50.183Z,98867.44
2023-04-26T09:35:27.492Z,98861.63
2023-04-26T09:38:03.372Z,98862.38
2023-04-26T09:40:35.872Z,98849.34
2023-04-26T09:43:06.490Z,98856.97
2023-04-26T09:45:43.851Z,98857.66
2023-04-26T09:48:22.065Z,98853.44
2023-04-26T09:50:52.564Z,98849.69
2023-04-26T09:53:29.034Z,98860.19
2023-04-26T09:55:57.319Z,98854.16
2023-04-26T09:58:26.811Z,98855.41
2023-04-26T10:00:56.064Z,98860.56
2023-04-26T10:03:24.305Z,98848.84
2023-04-26T10:05:52.851Z,98845.50
2023-04-26T10:08:20.863Z,98849.59
2023-04-26T10:10:49.233Z,98842.56
2023-04-26T10:13:17.721Z,98848.84
2023-04-26T10:15:49.097Z,98853.63
2023-04-26T10:18:17.370Z,98835.56
2023-04-26T10:20:49.600Z,98845.72
2023-04-26T10:23:22.179Z,98854.19
2023-04-26T10:25:50.321Z,98847.28
2023-04-26T10:28:19.174Z,98853.19
2023-04-26T10:31:07.175Z,98843.72
2023-04-26T10:33:35.268Z,98835.22
2023-04-26T10:36:09.226Z,98845.13
2023-04-26T10:38:38.965Z,98841.16
2023-04-26T10:41:29.638Z,98845.94
2023-04-26T10:43:57.713Z,98837.16
2023-04-26T10:46:38.502Z,98845.22
2023-04-26T10:49:17.098Z,98829.56
2023-04-26T10:52:11.708Z,98834.75
2023-04-26T10:54:56.592Z,98826.97
2023-04-26T10:57:27.082Z,98832.94
2023-04-26T11:00:17.951Z,98825.72
2023-04-26T11:03:00.761Z,98822.50
2023-04-26T11:05:53.595Z,98835.38
2023-04-26T11:08:25.661Z,98826.94
2023-04-26T11:11:06.918Z,98812.94
2023-04-26T11:13:37.195Z,98823.91
2023-04-26T11:16:07.182Z,98825.22
2023-04-26T11:18:37.773Z,98807.78
2023-04-26T11:21:07.211Z,98805.50
2023-04-26T11:23:36.744Z,98800.31
2023-04-26T11:26:06.713Z,98800.28
2023-04-26T11:28:35.617Z,98798.28
2023-04-26T11:31:04.455Z,98790.31
2023-04-26T11:33:34.514Z,98801.22
2023-04-26T11:36:04.965Z,98787.16
2023-04-26T11:38:32.929Z,98790.38
2023-04-26T11:41:01.881Z,98789.25
2023-04-26T11:43:36.957Z,98792.53
2023-04-26T11:46:06.917Z,98790.47
2023-04-26T11:48:37.151Z,98795.28
2023-04-26T11:51:08.317Z,98789.56
2023-04-26T11:53:37.690Z,98789.28
2023-04-26T11:56:06.718Z,98787.47
2023-04-26T11:58:34.623Z,98784.75
2023-04-26T12:01:03.510Z,98776.19
2023-04-26T12:03:33.329Z,98785.47
2023-04-26T12:06:02.243Z,98765.66
2023-04-26T12:08:33.442Z,98763.78
2023-04-26T12:11:02.647Z,98762.97
2023-04-26T12:13:32.027Z,98753.25
2023-04-26T12:16:00.064Z,98756.81
2023-04-26T12:18:34.160Z,98744.31
2023-04-26T12:21:02.612Z,98750.63
2023-04-26T12:23:40.990Z,98748.97
2023-04-26T12:26:11.268Z,98747.03
2023-04-26T12:28:39.217Z,98758.22
2023-04-26T12:31:07.614Z,98758.03
2023-04-26T12:33:36.095Z,98754.94
2023-04-26T12:36:08.535Z,98752.34
2023-04-26T12:38:38.015Z,98760.31
2023-04-26T12:41:06.360Z,98747.72
2023-04-26T12:43:34.319Z,98743.41
2023-04-26T12:46:02.664Z,98747.13
2023-04-26T12:48:30.668Z,98742.97
2023-04-26T12:50:58.603Z,98750.84
2023-04-26T12:53:27.035Z,98741.81
2023-04-26T12:55:56.492Z,98750.56
2023-04-26T12:58:25.531Z,98737.31
2023-04-26T13:00:53.556Z,98734.75
2023-04-26T13:03:21.683Z,98735.28
2023-04-26T13:05:49.790Z,98741.81
2023-04-26T13:08:17.780Z,98745.63
2023-04-26T13:10:45.730Z,98740.44
2023-04-26T13:13:15.030Z,98737.41
2023-04-26T13:15:42.977Z,98744.47
2023-04-26T13:18:11.077Z,98751.47
2023-04-26T13:20:39.097Z,98745.44
2023-04-26T13:23:07.029Z,98733.78
2023-04-26T13:25:34.930Z,98745.09
2023-04-26T13:28:03.130Z,98746.34
2023-04-26T13:30:33.158Z,98742.41
2023-04-26T13:33:01.224Z,98738.91
2023-04-26T13:35:29.178Z,98746.63
2023-04-26T13:37:57.140Z,98738.25
2023-04-26T13:40:25.228Z,98740.88
2023-04-26T13:42:53.185Z,98746.44
2023-04-26T13:45:21.324Z,98754.53
2023-04-26T13:47:50.675Z,98745.56
2023-04-26T13:50:19.741Z,98733.69
2023-04-26T13:52:49.677Z,98729.69
2023-04-26T13:55:17.650Z,98719.78
2023-04-26T13:57:45.758Z,98742.25
2023-04-26T14:00:15.161Z,98734.22
2023-04-26T14:02:43.480Z,98723.53
2023-04-26T14:05:14.179Z,98725.91
2023-04-26T14:07:42.625Z,98730.28
2023-04-26T14:10:11.308Z,98736.91
2023-04-26T14:12:39.314Z,98726.34
2023-04-26T14:15:08.609Z,98740.81
2023-04-26T14:17:36.592Z,98729.34
2023-04-26T14:20:06.840Z,98733.66
2023-04-26T14:22:36.210Z,98730.84
2023-04-26T14:25:04.364Z,98719.34
2023-04-26T14:27:32.741Z,98722.91
2023-04-26T14:30:00.651Z,98718.88
2023-04-26T14:32:28.628Z,98720.16
2023-04-26T14:34:56.540Z,98720.41
2023-04-26T14:37:24.456Z,98716.25
2023-04-26T14:39:53.771Z,98720.16
2023-04-26T14:42:22.085Z,98718.16
2023-04-26T14:44:50.047Z,98718.50
2023-04-26T14:47:18.054Z,98706.09
2023-04-26T14:49:45.932Z,98710.19
2023-04-26T14:52:13.906Z,98707.88
2023-04-26T14:54:42.579Z,98692.69
2023-04-26T14:57:11.918Z,98704.81
2023-04-26T14:59:39.819Z,98704.59
2023-04-26T15:02:08.239Z,98701.22
2023-04-26T15:04:37.544Z,98704.59
2023-04-26T15:07:05.709Z,98702.81
2023-04-26T15:09:33.968Z,98695.81
2023-04-26T15:12:02.583Z,98694.94
2023-04-26T15:14:32.115Z,98698.94
2023-04-26T15:17:00.407Z,98689.66
2023-04-26T15:19:28.443Z,98699.69
2023-04-26T15:21:56.390Z,98691.84
2023-04-26T15:24:24.264Z,98683.34
2023-04-26T15:26:52.186Z,98685.19
2023-04-26T15:29:20.121Z,98683.41
2023-04-26T15:31:49.500Z,98688.97
2023-04-26T15:34:17.392Z,98666.22
2023-04-26T15:36:45.335Z,98691.47
2023-04-26T15:39:13.245Z,98690.34
2023-04-26T15:41:41.141Z,98686.16
2023-04-26T15:44:09.045Z,98688.66
2023-04-26T15:46:38.161Z,98679.09
2023-04-26T15:49:07.643Z,98689.66
2023-04-26T15:51:35.963Z,98691.03
2023-04-26T15:54:03.830Z,98691.78
2023-04-26T15:56:31.769Z,98694.00
2023-04-26T15:58:59.669Z,98690.25
2023-04-26T16:01:29.393Z,98690.84
2023-04-26T16:03:57.428Z,98686.25
2023-04-26T16:06:27.357Z,98692.16
2023-04-26T16:08:55.321Z,98666.25
2023-04-26T16:11:23.243Z,98685.63
2023-04-26T16:13:52.014Z,98674.81
2023-04-26T16:16:20.373Z,98679.81
2023-04-26T16:18:48.304Z,98683.63
2023-04-26T16:21:16.272Z,98685.19
2023-04-26T16:23:45.577Z,98679.31
2023-04-26T16:26:13.520Z,98682.88
2023-04-26T16:28:41.802Z,98678.53
2023-04-26T16:31:09.765Z,98671.19
2023-04-26T16:33:37.678Z,98670.50
2023-04-26T16:36:06.228Z,98665.97
2023-04-26T16:38:34.203Z,98677.31
2023-04-26T16:41:03.840Z,98667.63
2023-04-26T16:43:32.904Z,98677.91
2023-04-26T16:46:02.164Z,98668.34
2023-04-26T16:48:32.900Z,98649.50
2023-04-26T16:51:00.970Z,98672.56
2023-04-26T16:53:29.013Z,98659.28
2023-04-26T16:55:57.153Z,98661.41
2023-04-26T16:58:26.697Z,98653.69
2023-04-26T17:00:54.649Z,98662.47
2023-04-26T17:03:24.180Z,98652.84
2023-04-26T17:05:52.596Z,98670.00
2023-04-26T17:08:20.969Z,98653.63
2023-04-26T17:10:49.550Z,98671.25
2023-04-26T17:13:17.602Z,98675.16
2023-04-26T17:15:47.338Z,98671.19
2023-04-26T17:18:15.285Z,98668.72
2023-04-26T17:20:43.195Z,98675.41
2023-04-26T17:23:11.809Z,98674.41
2023-04-26T17:25:39.722Z,98666.59
2023-04-26T17:28:07.692Z,98668.56
2023-04-26T17:30:35.576Z,98664.97
2023-04-26T17:33:05.517Z,98651.75
2023-04-26T17:35:33.516Z,98669.44
2023-04-26T17:38:01.434Z,98671.50
2023-04-26T17:40:29.351Z,98672.22
2023-04-26T17:42:57.324Z,98674.22
2023-04-26T17:45:25.496Z,98683.06
2023-04-26T17:47:53.562Z,98671.25
2023-04-26T17:50:23.975Z,98674.09
2023-04-26T17:52:51.933Z,98676.78
2023-04-26T17:55:19.869Z,98667.38
2023-04-26T17:57:47.801Z,98678.59
2023-04-26T18:00:16.664Z,98681.28
2023-04-26T18:02:44.725Z,98683.66
2023-04-26T18:05:13.445Z,98685.34
2023-04-26T18:07:42.869Z,98679.16
2023-04-26T18:10:11.317Z,98682.69
2023-04-26T18:12:39.943Z,98681.69
2023-04-26T18:15:09.079Z,98682.09
2023-04-26T18:17:37.413Z,98701.50
2023-04-26T18:20:06.694Z,98697.69
2023-04-26T18:22:35.615Z,98689.25
2023-04-26T18:25:05.552Z,98696.41
2023-04-26T18:27:33.990Z,98694.84
2023-04-26T18:30:02.157Z,98715.22
2023-04-26T18:32:30.329Z,98703.28
2023-04-26T18:34:58.487Z,98710.41
2023-04-26T18:40:27.322Z,98673.69
2023-04-26T18:42:55.524Z,98667.75
2023-04-26T18:45:28.569Z,98706.50
2023-04-26T18:47:59.088Z,98648.56
2023-04-26T18:50:27.441Z,98730.66
2023-04-26T18:52:56.013Z,98678.84
2023-04-26T18:55:32.832Z,98710.38
2023-04-26T18:58:05.776Z,98646.25
2023-04-26T19:00:37.729Z,98708.66
2023-04-26T19:03:06.117Z,98693.94
2023-04-26T19:05:37.463Z,98669.72
2023-04-26T19:08:05.798Z,98705.69
2023-04-26T19:10:38.657Z,98727.75
2023-04-26T19:13:07.839Z,98746.94
2023-04-26T19:15:36.629Z,98693.56
2023-04-26T19:18:06.811Z,98738.34
2023-04-26T19:20:35.444Z,98690.19
2023-04-26T19:23:06.574Z,98704.59
2023-04-26T19:25:38.016Z,98701.25
2023-04-26T19:28:11.767Z,98714.91
2023-04-26T19:30:40.158Z,98765.78
2023-04-26T19:33:32.071Z,98685.63
2023-04-26T19:36:00.392Z,98737.69
2023-04-26T19:38:29.009Z,98691.84
2023-04-26T19:40:59.081Z,98773.25
2023-04-26T19:43:29.624Z,98740.75
2023-04-26T19:46:11.920Z,98781.47
2023-04-26T19:48:40.509Z,98764.09
2023-04-26T19:51:11.224Z,98775.56
2023-04-26T19:53:40.218Z,98737.63
2023-04-26T19:56:11.114Z,98787.41
2023-04-26T19:58:39.679Z,98747.53
2023-04-26T20:01:08.144Z,98756.75
2023-04-26T20:03:39.695Z,98748.78
2023-04-26T20:06:11.816Z,98736.78
2023-04-26T20:08:39.975Z,98742.38
2023-04-26T20:11:15.033Z,98708.38
2023-04-26T20:13:43.436Z,98746.56
2023-04-26T20:16:12.740Z,98722.25
2023-04-26T20:18:41.128Z,98746.06
2023-04-26T20:21:09.514Z,98745.09
2023-04-26T20:23:38.114Z,98760.13
2023-04-26T20:26:06.373Z,98784.75
2023-04-26T20:28:37.508Z,98748.63
2023-04-26T20:31:07.695Z,98710.66
2023-04-26T20:33:35.915Z,98716.22
2023-04-26T20:36:05.282Z,98725.13
2023-04-26T20:38:33.876Z,98718.88
2023-04-26T20:41:02.450Z,98741.84
2023-04-26T20:43:30.922Z,98716.06
2023-04-26T20:46:00.786Z,98773.25
2023-04-26T20:48:29.810Z,98744.72
2023-04-26T20:50:59.012Z,98800.06
2023-04-26T20:53:27.687Z,98800.13
2023-04-26T20:55:56.205Z,98798.19
2023-04-26T20:58:24.458Z,98757.16
2023-04-26T21:00:54.029Z,98771.66
2023-04-26T21:03:24.231Z,98764.16
2023-04-26T21:05:52.888Z,98760.75
2023-04-26T21:08:21.426Z,98746.38
2023-04-26T21:10:49.516Z,98721.47
2023-04-26T21:13:18.394Z,98785.78
2023-04-26T21:15:47.393Z,98760.47
2023-04-26T21:18:17.908Z,98777.66
2023-04-26T21:20:47.650Z,98784.31
2023-04-26T21:23:15.838Z,98724.50
2023-04-26T21:25:46.520Z,98731.50
2023-04-26T21:28:15.120Z,98808.75
2023-04-26T21:30:43.530Z,98731.38
2023-04-26T21:33:12.684Z,98811.53
2023-04-26T21:35:40.908Z,98729.91
2023-04-26T21:38:10.413Z,98771.38
2023-04-26T21:40:39.628Z,98807.06
2023-04-26T21:43:07.913Z,98802.22
2023-04-26T21:45:35.942Z,98745.34
2023-04-26T21:48:04.714Z,98796.88
2023-04-26T21:50:33.171Z,98732.81
2023-04-26T21:53:01.432Z,98754.56
2023-04-26T21:55:30.957Z,98761.34
2023-04-26T21:57:59.603Z,98816.97
2023-04-26T22:00:28.322Z,98786.09
2023-04-26T22:02:56.557Z,98814.16
2023-04-26T22:05:25.949Z,98818.78
2023-04-26T22:07:54.607Z,98804.63
2023-04-26T22:10:22.661Z,98817.16
2023-04-26T22:12:53.098Z,98818.78
2023-04-26T22:15:21.204Z,98812.94
2023-04-26T22:17:49.172Z,98809.19
2023-04-26T22:20:17.298Z,98811.63
2023-04-26T22:22:45.223Z,98816.69
2023-04-26T22:25:13.159Z,98814.75
2023-04-26T22:27:41.182Z,98817.53
2023-04-26T22:30:23.812Z,98825.63
2023-04-26T22:32:54.692Z,98815.84
2023-04-26T22:35:23.708Z,98823.88
2023-04-26T22:37:52.085Z,98823.97
2023-04-26T22:40:20.486Z,98833.97
2023-04-26T22:42:48.540Z,98821.03
2023-04-26T22:45:18.105Z,98822.41
2023-04-26T22:47:46.080Z,98815.03
2023-04-26T22:50:13.998Z,98814.81
2023-04-26T22:52:42.043Z,98824.22
2023-04-26T22:55:10.822Z,98819.25
2023-04-26T22:57:38.807Z,98826.28
2023-04-26T23:00:09.612Z,98836.22
2023-04-26T23:02:39.120Z,98825.44
2023-04-26T23:05:10.319Z,98816.78
2023-04-26T23:07:38.656Z,98832.72
2023-04-26T23:10:07.596Z,98840.69
2023-04-26T23:12:36.131Z,98833.22
2023-04-26T23:15:05.225Z,98837.25
2023-04-26T23:17:34.193Z,98829.03
2023-04-26T23:20:11.590Z,98839.16
2023-04-26T23:22:39.859Z,98839.28
2023-04-26T23:25:09.129Z,98845.72
2023-04-26T23:27:38.202Z,98844.59
2023-04-26T23:30:07.332Z,98845.31
2023-04-26T23:32:35.297Z,98834.84
2023-04-26T23:35:05.592Z,98833.97
2023-04-26T23:37:33.619Z,98843.56
2023-04-26T23:40:01.663Z,98838.59
2023-04-26T23:42:29.589Z,98835.09
2023-04-26T23:44:57.512Z,98833.63
2023-04-26T23:47:25.507Z,98838.53
2023-04-26T23:49:53.397Z,98829.00
2023-04-26T23:52:22.718Z,98834.34
2023-04-26T23:54:50.622Z,98826.03
2023-04-26T23:57:18.704Z,98824.34
2023-04-26T23:59:46.759Z,98828.84
